sensor_id;sensor_type;location;lat;lon;timestamp;P1;durP1;ratioP1;P2;durP2;ratioP2
47603;SDS011;33326;51.116;6.900;2022-08-26T00:04:55;6.70;;;5.45;;
47603;SDS011;33326;51.116;6.900;2022-08-26T00:09:57;9.98;;;5.45;;
47603;SDS011;33326;51.116;6.900;2022-08-26T00:14:58;7.78;;;5.00;;
47603;SDS011;33326;51.116;6.900;2022-08-26T00:20:03;8.25;;;6.03;;
47603;SDS011;33326;51.116;6.900;2022-08-26T00:25:06;9.57;;;5.85;;
47603;SDS011;33326;51.116;6.900;2022-08-26T00:30:10;11.73;;;6.80;;
47603;SDS011;33326;51.116;6.900;2022-08-26T00:35:15;12.93;;;8.32;;
47603;SDS011;33326;51.116;6.900;2022-08-26T00:40:19;13.80;;;9.23;;
47603;SDS011;33326;51.116;6.900;2022-08-26T00:45:22;18.58;;;13.93;;
47603;SDS011;33326;51.116;6.900;2022-08-26T00:50:26;21.98;;;17.58;;
47603;SDS011;33326;51.116;6.900;2022-08-26T00:55:32;24.40;;;18.65;;
47603;SDS011;33326;51.116;6.900;2022-08-26T01:00:38;26.00;;;17.70;;
47603;SDS011;33326;51.116;6.900;2022-08-26T01:05:42;21.85;;;19.48;;
47603;SDS011;33326;51.116;6.900;2022-08-26T01:10:44;27.50;;;24.15;;
47603;SDS011;33326;51.116;6.900;2022-08-26T01:15:47;27.42;;;24.42;;
47603;SDS011;33326;51.116;6.900;2022-08-26T01:20:55;34.70;;;29.20;;
47603;SDS011;33326;51.116;6.900;2022-08-26T01:26:04;37.03;;;33.10;;
47603;SDS011;33326;51.116;6.900;2022-08-26T01:31:10;37.00;;;31.63;;
47603;SDS011;33326;51.116;6.900;2022-08-26T01:36:13;36.95;;;31.00;;
47603;SDS011;33326;51.116;6.900;2022-08-26T01:41:17;41.78;;;36.20;;
47603;SDS011;33326;51.116;6.900;2022-08-26T01:46:20;42.42;;;37.03;;
47603;SDS011;33326;51.116;6.900;2022-08-26T01:51:24;43.33;;;38.67;;
47603;SDS011;33326;51.116;6.900;2022-08-26T01:56:28;49.50;;;39.78;;
47603;SDS011;33326;51.116;6.900;2022-08-26T02:01:30;45.47;;;40.50;;
47603;SDS011;33326;51.116;6.900;2022-08-26T02:06:33;53.30;;;47.60;;
47603;SDS011;33326;51.116;6.900;2022-08-26T02:11:38;50.63;;;43.70;;
47603;SDS011;33326;51.116;6.900;2022-08-26T02:16:40;46.42;;;41.47;;
47603;SDS011;33326;51.116;6.900;2022-08-26T02:21:44;41.00;;;36.55;;
47603;SDS011;33326;51.116;6.900;2022-08-26T02:26:49;53.00;;;47.33;;
47603;SDS011;33326;51.116;6.900;2022-08-26T02:31:52;47.40;;;42.33;;
47603;SDS011;33326;51.116;6.900;2022-08-26T02:36:55;46.30;;;41.38;;
47603;SDS011;33326;51.116;6.900;2022-08-26T02:41:59;48.25;;;40.75;;
47603;SDS011;33326;51.116;6.900;2022-08-26T02:47:01;49.65;;;44.28;;
47603;SDS011;33326;51.116;6.900;2022-08-26T02:52:03;42.67;;;37.63;;
47603;SDS011;33326;51.116;6.900;2022-08-26T02:57:06;42.90;;;38.35;;
47603;SDS011;33326;51.116;6.900;2022-08-26T03:02:08;37.13;;;32.78;;
47603;SDS011;33326;51.116;6.900;2022-08-26T03:07:11;41.50;;;37.20;;
47603;SDS011;33326;51.116;6.900;2022-08-26T03:12:14;40.92;;;36.45;;
47603;SDS011;33326;51.116;6.900;2022-08-26T03:17:16;40.85;;;36.63;;
47603;SDS011;33326;51.116;6.900;2022-08-26T03:22:18;40.95;;;36.17;;
47603;SDS011;33326;51.116;6.900;2022-08-26T03:27:21;34.95;;;31.20;;
47603;SDS011;33326;51.116;6.900;2022-08-26T03:32:23;40.15;;;34.53;;
47603;SDS011;33326;51.116;6.900;2022-08-26T03:37:25;39.83;;;35.50;;
47603;SDS011;33326;51.116;6.900;2022-08-26T03:42:28;40.78;;;33.70;;
47603;SDS011;33326;51.116;6.900;2022-08-26T03:47:30;38.88;;;32.65;;
47603;SDS011;33326;51.116;6.900;2022-08-26T03:52:32;38.30;;;32.78;;
47603;SDS011;33326;51.116;6.900;2022-08-26T03:57:36;41.97;;;35.92;;
47603;SDS011;33326;51.116;6.900;2022-08-26T04:02:37;48.92;;;38.00;;
47603;SDS011;33326;51.116;6.900;2022-08-26T04:07:39;42.33;;;34.83;;
47603;SDS011;33326;51.116;6.900;2022-08-26T04:12:43;42.03;;;34.03;;
47603;SDS011;33326;51.116;6.900;2022-08-26T04:17:45;46.40;;;35.92;;
47603;SDS011;33326;51.116;6.900;2022-08-26T04:22:47;47.22;;;35.13;;
47603;SDS011;33326;51.116;6.900;2022-08-26T04:27:51;43.95;;;33.42;;
47603;SDS011;33326;51.116;6.900;2022-08-26T04:32:54;42.58;;;33.53;;
47603;SDS011;33326;51.116;6.900;2022-08-26T04:37:55;41.80;;;32.75;;
47603;SDS011;33326;51.116;6.900;2022-08-26T04:42:59;39.40;;;31.63;;
47603;SDS011;33326;51.116;6.900;2022-08-26T04:48:01;36.55;;;29.27;;
47603;SDS011;33326;51.116;6.900;2022-08-26T04:53:03;35.25;;;30.58;;
47603;SDS011;33326;51.116;6.900;2022-08-26T04:58:07;31.58;;;26.27;;
47603;SDS011;33326;51.116;6.900;2022-08-26T05:03:09;37.80;;;25.73;;
47603;SDS011;33326;51.116;6.900;2022-08-26T05:08:11;27.13;;;21.55;;
47603;SDS011;33326;51.116;6.900;2022-08-26T05:13:16;27.85;;;23.05;;
47603;SDS011;33326;51.116;6.900;2022-08-26T05:18:20;26.55;;;21.13;;
47603;SDS011;33326;51.116;6.900;2022-08-26T05:23:24;26.00;;;20.05;;
47603;SDS011;33326;51.116;6.900;2022-08-26T05:28:28;25.77;;;18.52;;
47603;SDS011;33326;51.116;6.900;2022-08-26T05:33:30;27.13;;;18.88;;
47603;SDS011;33326;51.116;6.900;2022-08-26T05:38:32;25.52;;;19.63;;
47603;SDS011;33326;51.116;6.900;2022-08-26T05:43:35;26.50;;;18.23;;
47603;SDS011;33326;51.116;6.900;2022-08-26T05:48:37;27.02;;;17.90;;
47603;SDS011;33326;51.116;6.900;2022-08-26T05:53:41;27.20;;;17.33;;
47603;SDS011;33326;51.116;6.900;2022-08-26T05:58:45;22.50;;;15.88;;
47603;SDS011;33326;51.116;6.900;2022-08-26T06:03:47;25.48;;;15.70;;
47603;SDS011;33326;51.116;6.900;2022-08-26T06:08:51;24.17;;;16.55;;
47603;SDS011;33326;51.116;6.900;2022-08-26T06:13:56;25.02;;;14.60;;
47603;SDS011;33326;51.116;6.900;2022-08-26T06:19:00;24.10;;;14.40;;
47603;SDS011;33326;51.116;6.900;2022-08-26T06:24:04;20.33;;;13.73;;
47603;SDS011;33326;51.116;6.900;2022-08-26T06:29:27;21.35;;;13.50;;
47603;SDS011;33326;51.116;6.900;2022-08-26T06:34:32;19.85;;;13.30;;
47603;SDS011;33326;51.116;6.900;2022-08-26T06:39:34;25.05;;;14.68;;
47603;SDS011;33326;51.116;6.900;2022-08-26T06:44:37;18.27;;;12.50;;
47603;SDS011;33326;51.116;6.900;2022-08-26T06:49:39;20.95;;;12.43;;
47603;SDS011;33326;51.116;6.900;2022-08-26T06:54:41;21.67;;;14.32;;
47603;SDS011;33326;51.116;6.900;2022-08-26T06:59:45;19.10;;;13.38;;
47603;SDS011;33326;51.116;6.900;2022-08-26T07:04:47;15.75;;;12.57;;
47603;SDS011;33326;51.116;6.900;2022-08-26T07:09:49;23.52;;;13.70;;
47603;SDS011;33326;51.116;6.900;2022-08-26T07:14:53;20.35;;;13.18;;
47603;SDS011;33326;51.116;6.900;2022-08-26T07:19:55;18.38;;;12.02;;
47603;SDS011;33326;51.116;6.900;2022-08-26T07:24:57;14.95;;;11.68;;
47603;SDS011;33326;51.116;6.900;2022-08-26T07:30:00;17.85;;;10.45;;
47603;SDS011;33326;51.116;6.900;2022-08-26T07:35:04;15.77;;;10.05;;
47603;SDS011;33326;51.116;6.900;2022-08-26T07:40:07;16.15;;;11.48;;
47603;SDS011;33326;51.116;6.900;2022-08-26T07:45:10;18.17;;;12.50;;
47603;SDS011;33326;51.116;6.900;2022-08-26T07:50:12;17.08;;;13.25;;
47603;SDS011;33326;51.116;6.900;2022-08-26T07:55:15;18.23;;;12.40;;
47603;SDS011;33326;51.116;6.900;2022-08-26T08:00:19;19.88;;;12.32;;
47603;SDS011;33326;51.116;6.900;2022-08-26T08:05:21;18.40;;;10.80;;
47603;SDS011;33326;51.116;6.900;2022-08-26T08:10:25;16.45;;;10.45;;
47603;SDS011;33326;51.116;6.900;2022-08-26T08:15:29;11.80;;;8.13;;
47603;SDS011;33326;51.116;6.900;2022-08-26T08:20:32;14.32;;;9.02;;
47603;SDS011;33326;51.116;6.900;2022-08-26T08:25:35;10.90;;;8.02;;
47603;SDS011;33326;51.116;6.900;2022-08-26T08:30:38;13.95;;;9.00;;
47603;SDS011;33326;51.116;6.900;2022-08-26T08:35:40;13.27;;;8.57;;
47603;SDS011;33326;51.116;6.900;2022-08-26T08:40:45;13.77;;;9.63;;
47603;SDS011;33326;51.116;6.900;2022-08-26T08:45:48;12.98;;;8.25;;
47603;SDS011;33326;51.116;6.900;2022-08-26T08:50:54;14.30;;;9.15;;
47603;SDS011;33326;51.116;6.900;2022-08-26T08:56:05;12.43;;;8.80;;
47603;SDS011;33326;51.116;6.900;2022-08-26T09:01:16;14.02;;;9.13;;
47603;SDS011;33326;51.116;6.900;2022-08-26T09:06:25;15.25;;;9.07;;
47603;SDS011;33326;51.116;6.900;2022-08-26T09:11:27;20.92;;;9.52;;
47603;SDS011;33326;51.116;6.900;2022-08-26T09:16:34;12.13;;;7.28;;
47603;SDS011;33326;51.116;6.900;2022-08-26T09:21:41;13.95;;;8.25;;
47603;SDS011;33326;51.116;6.900;2022-08-26T09:26:44;11.43;;;7.15;;
47603;SDS011;33326;51.116;6.900;2022-08-26T09:31:49;11.98;;;6.90;;
47603;SDS011;33326;51.116;6.900;2022-08-26T09:36:52;11.50;;;5.68;;
47603;SDS011;33326;51.116;6.900;2022-08-26T09:42:06;15.35;;;10.02;;
47603;SDS011;33326;51.116;6.900;2022-08-26T09:47:11;10.73;;;8.25;;
47603;SDS011;33326;51.116;6.900;2022-08-26T09:52:14;15.50;;;7.75;;
47603;SDS011;33326;51.116;6.900;2022-08-26T09:57:24;10.63;;;6.10;;
47603;SDS011;33326;51.116;6.900;2022-08-26T10:02:36;11.35;;;7.30;;
47603;SDS011;33326;51.116;6.900;2022-08-26T10:07:43;15.02;;;8.07;;
47603;SDS011;33326;51.116;6.900;2022-08-26T10:12:49;14.02;;;9.52;;
47603;SDS011;33326;51.116;6.900;2022-08-26T10:18:02;19.13;;;12.90;;
47603;SDS011;33326;51.116;6.900;2022-08-26T10:23:09;25.92;;;17.85;;
47603;SDS011;33326;51.116;6.900;2022-08-26T10:28:18;37.78;;;30.23;;
47603;SDS011;33326;51.116;6.900;2022-08-26T10:33:27;40.03;;;31.30;;
47603;SDS011;33326;51.116;6.900;2022-08-26T10:38:31;36.15;;;30.50;;
47603;SDS011;33326;51.116;6.900;2022-08-26T10:43:36;31.33;;;27.52;;
47603;SDS011;33326;51.116;6.900;2022-08-26T10:48:44;30.08;;;26.75;;
47603;SDS011;33326;51.116;6.900;2022-08-26T10:53:51;23.83;;;20.15;;
47603;SDS011;33326;51.116;6.900;2022-08-26T10:58:59;29.60;;;24.80;;
47603;SDS011;33326;51.116;6.900;2022-08-26T11:04:09;30.08;;;27.08;;
47603;SDS011;33326;51.116;6.900;2022-08-26T11:14:48;15.38;;;12.10;;
47603;SDS011;33326;51.116;6.900;2022-08-26T11:19:58;11.25;;;6.65;;
47603;SDS011;33326;51.116;6.900;2022-08-26T11:25:12;12.20;;;6.38;;
47603;SDS011;33326;51.116;6.900;2022-08-26T11:35:59;11.60;;;5.18;;
47603;SDS011;33326;51.116;6.900;2022-08-26T11:41:05;14.07;;;6.18;;
47603;SDS011;33326;51.116;6.900;2022-08-26T11:46:12;12.55;;;7.18;;
47603;SDS011;33326;51.116;6.900;2022-08-26T11:51:24;17.95;;;7.35;;
47603;SDS011;33326;51.116;6.900;2022-08-26T11:56:27;11.50;;;5.47;;
47603;SDS011;33326;51.116;6.900;2022-08-26T12:01:33;13.18;;;6.30;;
47603;SDS011;33326;51.116;6.900;2022-08-26T12:06:38;17.98;;;9.77;;
47603;SDS011;33326;51.116;6.900;2022-08-26T12:11:45;17.98;;;9.07;;
47603;SDS011;33326;51.116;6.900;2022-08-26T12:16:47;17.90;;;9.00;;
47603;SDS011;33326;51.116;6.900;2022-08-26T12:21:56;14.57;;;7.85;;
47603;SDS011;33326;51.116;6.900;2022-08-26T12:27:04;14.77;;;7.43;;
47603;SDS011;33326;51.116;6.900;2022-08-26T12:32:15;10.25;;;4.10;;
47603;SDS011;33326;51.116;6.900;2022-08-26T12:37:19;10.45;;;3.47;;
47603;SDS011;33326;51.116;6.900;2022-08-26T12:42:23;10.85;;;3.40;;
47603;SDS011;33326;51.116;6.900;2022-08-26T12:47:41;7.68;;;3.33;;
47603;SDS011;33326;51.116;6.900;2022-08-26T12:52:55;9.25;;;3.47;;
47603;SDS011;33326;51.116;6.900;2022-08-26T12:58:18;9.95;;;4.68;;
47603;SDS011;33326;51.116;6.900;2022-08-26T13:03:34;10.55;;;4.95;;
47603;SDS011;33326;51.116;6.900;2022-08-26T13:08:44;13.77;;;7.85;;
47603;SDS011;33326;51.116;6.900;2022-08-26T13:13:47;9.00;;;4.28;;
47603;SDS011;33326;51.116;6.900;2022-08-26T13:18:52;8.25;;;3.92;;
47603;SDS011;33326;51.116;6.900;2022-08-26T13:23:57;10.93;;;3.47;;
47603;SDS011;33326;51.116;6.900;2022-08-26T13:29:05;10.77;;;2.80;;
47603;SDS011;33326;51.116;6.900;2022-08-26T13:34:07;9.32;;;2.67;;
47603;SDS011;33326;51.116;6.900;2022-08-26T13:39:12;12.05;;;2.42;;
47603;SDS011;33326;51.116;6.900;2022-08-26T13:44:14;8.07;;;2.40;;
47603;SDS011;33326;51.116;6.900;2022-08-26T13:49:16;8.73;;;2.80;;
47603;SDS011;33326;51.116;6.900;2022-08-26T13:54:19;7.63;;;1.83;;
47603;SDS011;33326;51.116;6.900;2022-08-26T13:59:21;8.25;;;2.45;;
47603;SDS011;33326;51.116;6.900;2022-08-26T14:04:23;7.13;;;2.30;;
47603;SDS011;33326;51.116;6.900;2022-08-26T14:09:28;10.65;;;2.55;;
47603;SDS011;33326;51.116;6.900;2022-08-26T14:14:30;8.35;;;1.95;;
47603;SDS011;33326;51.116;6.900;2022-08-26T14:19:32;8.90;;;2.47;;
47603;SDS011;33326;51.116;6.900;2022-08-26T14:24:35;9.13;;;2.65;;
47603;SDS011;33326;51.116;6.900;2022-08-26T14:29:37;12.20;;;2.88;;
47603;SDS011;33326;51.116;6.900;2022-08-26T14:34:40;10.95;;;2.78;;
47603;SDS011;33326;51.116;6.900;2022-08-26T14:39:44;9.15;;;2.35;;
47603;SDS011;33326;51.116;6.900;2022-08-26T14:44:47;13.27;;;2.83;;
47603;SDS011;33326;51.116;6.900;2022-08-26T14:49:54;8.25;;;2.90;;
47603;SDS011;33326;51.116;6.900;2022-08-26T14:54:58;6.32;;;3.15;;
47603;SDS011;33326;51.116;6.900;2022-08-26T14:59:59;8.45;;;2.40;;
47603;SDS011;33326;51.116;6.900;2022-08-26T15:05:02;10.80;;;2.78;;
47603;SDS011;33326;51.116;6.900;2022-08-26T15:10:06;11.80;;;3.67;;
47603;SDS011;33326;51.116;6.900;2022-08-26T15:15:11;13.35;;;6.70;;
47603;SDS011;33326;51.116;6.900;2022-08-26T15:20:15;6.22;;;2.90;;
47603;SDS011;33326;51.116;6.900;2022-08-26T15:25:22;11.35;;;2.80;;
47603;SDS011;33326;51.116;6.900;2022-08-26T15:30:24;12.70;;;3.60;;
47603;SDS011;33326;51.116;6.900;2022-08-26T15:35:27;8.98;;;3.20;;
47603;SDS011;33326;51.116;6.900;2022-08-26T15:40:30;10.80;;;3.03;;
47603;SDS011;33326;51.116;6.900;2022-08-26T15:45:32;11.85;;;2.72;;
47603;SDS011;33326;51.116;6.900;2022-08-26T15:50:34;9.63;;;3.10;;
47603;SDS011;33326;51.116;6.900;2022-08-26T15:55:37;35.58;;;4.82;;
47603;SDS011;33326;51.116;6.900;2022-08-26T16:00:40;158.43;;;10.05;;
47603;SDS011;33326;51.116;6.900;2022-08-26T16:05:42;77.07;;;6.05;;
47603;SDS011;33326;51.116;6.900;2022-08-26T16:10:45;39.42;;;4.20;;
47603;SDS011;33326;51.116;6.900;2022-08-26T16:15:48;7.93;;;2.65;;
47603;SDS011;33326;51.116;6.900;2022-08-26T16:20:51;10.30;;;3.35;;
47603;SDS011;33326;51.116;6.900;2022-08-26T16:25:55;7.30;;;2.47;;
47603;SDS011;33326;51.116;6.900;2022-08-26T16:30:58;9.80;;;3.13;;
47603;SDS011;33326;51.116;6.900;2022-08-26T16:36:00;6.90;;;2.83;;
47603;SDS011;33326;51.116;6.900;2022-08-26T16:41:04;7.90;;;2.75;;
47603;SDS011;33326;51.116;6.900;2022-08-26T16:46:06;6.55;;;2.78;;
47603;SDS011;33326;51.116;6.900;2022-08-26T16:51:10;7.20;;;3.20;;
47603;SDS011;33326;51.116;6.900;2022-08-26T16:56:16;9.50;;;2.95;;
47603;SDS011;33326;51.116;6.900;2022-08-26T17:01:20;11.82;;;3.40;;
47603;SDS011;33326;51.116;6.900;2022-08-26T17:06:23;10.02;;;3.53;;
47603;SDS011;33326;51.116;6.900;2022-08-26T17:11:26;6.45;;;3.00;;
47603;SDS011;33326;51.116;6.900;2022-08-26T17:16:30;4.68;;;2.55;;
47603;SDS011;33326;51.116;6.900;2022-08-26T17:21:33;6.70;;;2.40;;
47603;SDS011;33326;51.116;6.900;2022-08-26T17:26:38;8.07;;;2.67;;
47603;SDS011;33326;51.116;6.900;2022-08-26T17:31:43;8.27;;;2.88;;
47603;SDS011;33326;51.116;6.900;2022-08-26T17:36:45;6.38;;;2.53;;
47603;SDS011;33326;51.116;6.900;2022-08-26T17:41:48;6.43;;;2.53;;
47603;SDS011;33326;51.116;6.900;2022-08-26T17:46:50;6.88;;;2.40;;
47603;SDS011;33326;51.116;6.900;2022-08-26T17:51:52;7.75;;;2.38;;
47603;SDS011;33326;51.116;6.900;2022-08-26T17:56:58;5.13;;;2.15;;
47603;SDS011;33326;51.116;6.900;2022-08-26T18:02:00;5.15;;;2.25;;
47603;SDS011;33326;51.116;6.900;2022-08-26T18:07:02;4.95;;;2.50;;
47603;SDS011;33326;51.116;6.900;2022-08-26T18:12:06;8.00;;;2.67;;
47603;SDS011;33326;51.116;6.900;2022-08-26T18:17:09;7.03;;;3.10;;
47603;SDS011;33326;51.116;6.900;2022-08-26T18:22:11;10.23;;;3.42;;
47603;SDS011;33326;51.116;6.900;2022-08-26T18:27:14;8.02;;;3.35;;
47603;SDS011;33326;51.116;6.900;2022-08-26T18:32:17;6.20;;;3.47;;
47603;SDS011;33326;51.116;6.900;2022-08-26T18:37:18;7.35;;;3.10;;
47603;SDS011;33326;51.116;6.900;2022-08-26T18:42:22;9.07;;;3.33;;
47603;SDS011;33326;51.116;6.900;2022-08-26T18:47:24;9.40;;;3.95;;
47603;SDS011;33326;51.116;6.900;2022-08-26T18:52:25;7.38;;;3.38;;
47603;SDS011;33326;51.116;6.900;2022-08-26T18:57:32;8.27;;;4.35;;
47603;SDS011;33326;51.116;6.900;2022-08-26T19:02:33;7.20;;;3.97;;
47603;SDS011;33326;51.116;6.900;2022-08-26T19:07:35;8.93;;;3.60;;
47603;SDS011;33326;51.116;6.900;2022-08-26T19:12:39;9.13;;;4.15;;
47603;SDS011;33326;51.116;6.900;2022-08-26T19:17:41;10.32;;;4.13;;
47603;SDS011;33326;51.116;6.900;2022-08-26T19:22:43;8.18;;;3.40;;
47603;SDS011;33326;51.116;6.900;2022-08-26T19:27:47;8.80;;;2.97;;
47603;SDS011;33326;51.116;6.900;2022-08-26T19:32:49;7.72;;;2.97;;
47603;SDS011;33326;51.116;6.900;2022-08-26T19:37:51;7.95;;;2.90;;
47603;SDS011;33326;51.116;6.900;2022-08-26T19:42:54;8.02;;;3.30;;
47603;SDS011;33326;51.116;6.900;2022-08-26T19:47:57;7.00;;;3.03;;
47603;SDS011;33326;51.116;6.900;2022-08-26T19:52:59;8.30;;;3.50;;
47603;SDS011;33326;51.116;6.900;2022-08-26T19:58:04;9.00;;;4.00;;
47603;SDS011;33326;51.116;6.900;2022-08-26T20:03:07;10.73;;;4.35;;
47603;SDS011;33326;51.116;6.900;2022-08-26T20:08:09;8.90;;;3.80;;
47603;SDS011;33326;51.116;6.900;2022-08-26T20:13:13;9.82;;;4.10;;
47603;SDS011;33326;51.116;6.900;2022-08-26T20:18:15;9.75;;;3.90;;
47603;SDS011;33326;51.116;6.900;2022-08-26T20:23:34;9.00;;;4.18;;
47603;SDS011;33326;51.116;6.900;2022-08-26T20:28:38;8.90;;;3.03;;
47603;SDS011;33326;51.116;6.900;2022-08-26T20:33:40;8.32;;;4.18;;
47603;SDS011;33326;51.116;6.900;2022-08-26T20:38:42;13.02;;;4.55;;
47603;SDS011;33326;51.116;6.900;2022-08-26T20:43:46;8.15;;;4.07;;
47603;SDS011;33326;51.116;6.900;2022-08-26T20:48:48;10.35;;;3.47;;
47603;SDS011;33326;51.116;6.900;2022-08-26T20:53:50;7.97;;;3.35;;
47603;SDS011;33326;51.116;6.900;2022-08-26T20:58:57;11.93;;;5.05;;
47603;SDS011;33326;51.116;6.900;2022-08-26T21:04:01;13.10;;;7.35;;
47603;SDS011;33326;51.116;6.900;2022-08-26T21:09:07;10.68;;;6.75;;
47603;SDS011;33326;51.116;6.900;2022-08-26T21:14:12;14.13;;;8.65;;
47603;SDS011;33326;51.116;6.900;2022-08-26T21:19:15;11.52;;;7.30;;
47603;SDS011;33326;51.116;6.900;2022-08-26T21:24:18;10.00;;;5.78;;
47603;SDS011;33326;51.116;6.900;2022-08-26T21:29:21;10.57;;;6.93;;
47603;SDS011;33326;51.116;6.900;2022-08-26T21:34:24;15.90;;;9.68;;
47603;SDS011;33326;51.116;6.900;2022-08-26T21:39:25;15.13;;;9.18;;
47603;SDS011;33326;51.116;6.900;2022-08-26T21:44:29;14.40;;;9.00;;
47603;SDS011;33326;51.116;6.900;2022-08-26T21:49:32;21.10;;;9.00;;
47603;SDS011;33326;51.116;6.900;2022-08-26T21:54:34;15.95;;;11.10;;
47603;SDS011;33326;51.116;6.900;2022-08-26T21:59:37;12.85;;;7.18;;
47603;SDS011;33326;51.116;6.900;2022-08-26T22:04:39;15.38;;;5.60;;
47603;SDS011;33326;51.116;6.900;2022-08-26T22:09:41;11.63;;;4.72;;
47603;SDS011;33326;51.116;6.900;2022-08-26T22:14:44;8.63;;;4.20;;
47603;SDS011;33326;51.116;6.900;2022-08-26T22:19:47;6.82;;;5.13;;
47603;SDS011;33326;51.116;6.900;2022-08-26T22:24:49;10.52;;;4.88;;
47603;SDS011;33326;51.116;6.900;2022-08-26T22:29:52;9.05;;;4.32;;
47603;SDS011;33326;51.116;6.900;2022-08-26T22:34:54;8.48;;;3.97;;
47603;SDS011;33326;51.116;6.900;2022-08-26T22:39:56;9.93;;;4.22;;
47603;SDS011;33326;51.116;6.900;2022-08-26T22:44:59;7.82;;;4.25;;
47603;SDS011;33326;51.116;6.900;2022-08-26T22:50:02;10.98;;;4.05;;
47603;SDS011;33326;51.116;6.900;2022-08-26T22:55:05;6.85;;;3.97;;
47603;SDS011;33326;51.116;6.900;2022-08-26T23:00:10;9.93;;;3.72;;
47603;SDS011;33326;51.116;6.900;2022-08-26T23:05:18;8.35;;;2.97;;
47603;SDS011;33326;51.116;6.900;2022-08-26T23:10:20;5.60;;;3.20;;
47603;SDS011;33326;51.116;6.900;2022-08-26T23:15:26;7.70;;;3.15;;
47603;SDS011;33326;51.116;6.900;2022-08-26T23:20:28;5.95;;;2.95;;
47603;SDS011;33326;51.116;6.900;2022-08-26T23:25:30;5.95;;;3.00;;
47603;SDS011;33326;51.116;6.900;2022-08-26T23:30:34;6.03;;;2.90;;
47603;SDS011;33326;51.116;6.900;2022-08-26T23:35:36;7.25;;;3.58;;
47603;SDS011;33326;51.116;6.900;2022-08-26T23:40:39;9.00;;;3.72;;
47603;SDS011;33326;51.116;6.900;2022-08-26T23:45:43;6.90;;;4.00;;
47603;SDS011;33326;51.116;6.900;2022-08-26T23:50:44;9.00;;;3.78;;
47603;SDS011;33326;51.116;6.900;2022-08-26T23:56:04;8.35;;;4.40;;
